createdAt,value
2017-02-14T00:00:00.137Z,929.39
2017-02-14T00:00:28.137Z,929.37
2017-02-14T00:00:56.342Z,929.37
2017-02-14T00:01:24.470Z,929.37
2017-02-14T00:01:52.567Z,929.36
2017-02-14T00:02:20.671Z,929.38
2017-02-14T00:02:48.675Z,929.4
2017-02-14T00:03:16.724Z,929.36
2017-02-14T00:03:44.886Z,929.4
2017-02-14T00:04:13.211Z,929.39
2017-02-14T00:04:41.441Z,929.39
2017-02-14T00:05:09.583Z,929.41
2017-02-14T00:05:37.616Z,929.4
2017-02-14T00:06:05.756Z,929.39
2017-02-14T00:06:33.800Z,929.4
2017-02-14T00:07:01.811Z,929.43
2017-02-14T00:07:29.860Z,929.44
2017-02-14T00:07:58.074Z,929.45
2017-02-14T00:08:26.296Z,929.49
2017-02-14T00:08:54.461Z,929.48
2017-02-14T00:09:22.631Z,929.49
2017-02-14T00:09:50.535Z,929.46
2017-02-14T00:10:18.638Z,929.49
2017-02-14T00:10:46.576Z,929.49
2017-02-14T00:11:14.644Z,929.52
2017-02-14T00:11:42.636Z,929.48
2017-02-14T00:12:10.603Z,929.58
2017-02-14T00:12:38.798Z,929.54
2017-02-14T00:13:06.870Z,929.57
2017-02-14T00:13:35.006Z,929.6
2017-02-14T00:14:03.109Z,929.59
2017-02-14T00:14:31.469Z,929.62
2017-02-14T00:14:59.547Z,929.6
2017-02-14T00:15:27.554Z,929.6
2017-02-14T00:15:55.658Z,929.57
2017-02-14T00:16:23.803Z,929.6
2017-02-14T00:16:51.909Z,929.59
2017-02-14T00:17:20.023Z,929.62
2017-02-14T00:17:48.137Z,929.61
2017-02-14T00:18:16.256Z,929.61
2017-02-14T00:18:44.304Z,929.64
2017-02-14T00:19:12.558Z,929.7
2017-02-14T00:19:40.710Z,929.64
2017-02-14T00:20:08.816Z,929.67
2017-02-14T00:20:36.826Z,929.65
2017-02-14T00:21:04.911Z,929.67
2017-02-14T00:21:33.131Z,929.69
2017-02-14T00:22:01.158Z,929.69
2017-02-14T00:22:29.178Z,929.71
2017-02-14T00:22:57.309Z,929.72
2017-02-14T00:23:25.376Z,929.76
2017-02-14T00:23:53.481Z,929.76
2017-02-14T00:24:21.848Z,929.77
2017-02-14T00:24:49.904Z,929.78
2017-02-14T00:25:18.028Z,929.82
2017-02-14T00:25:46.014Z,929.83
2017-02-14T00:26:14.158Z,929.82
2017-02-14T00:26:42.201Z,929.85
2017-02-14T00:27:10.209Z,929.82
2017-02-14T00:27:38.335Z,929.82
2017-02-14T00:28:06.501Z,929.81
2017-02-14T00:28:34.716Z,929.84
2017-02-14T00:29:02.757Z,929.84
2017-02-14T00:29:31.093Z,929.82
2017-02-14T00:29:59.008Z,929.8
2017-02-14T00:30:27.235Z,929.85
2017-02-14T00:30:55.383Z,929.84
2017-02-14T00:31:23.572Z,929.83
2017-02-14T00:31:51.704Z,929.85
2017-02-14T00:32:19.965Z,929.85
2017-02-14T00:32:48.087Z,929.86
2017-02-14T00:33:16.300Z,929.86
2017-02-14T00:33:44.549Z,929.89
2017-02-14T00:34:12.593Z,929.91
2017-02-14T00:34:40.755Z,929.9
2017-02-14T00:35:08.982Z,929.88
2017-02-14T00:35:37.203Z,929.88
2017-02-14T00:36:05.202Z,929.89
2017-02-14T00:36:33.228Z,929.88
2017-02-14T00:37:01.301Z,929.89
2017-02-14T00:37:29.368Z,929.85
2017-02-14T00:37:57.404Z,929.87
2017-02-14T00:38:25.507Z,929.87
2017-02-14T00:38:53.680Z,929.9
2017-02-14T00:39:21.762Z,929.91
2017-02-14T00:39:50.064Z,929.89
2017-02-14T00:40:18.171Z,929.93
2017-02-14T00:40:46.355Z,929.93
2017-02-14T00:41:14.542Z,929.97
2017-02-14T00:41:42.574Z,929.94
2017-02-14T00:42:10.586Z,929.96
2017-02-14T00:42:38.701Z,929.96
2017-02-14T00:43:06.781Z,929.97
2017-02-14T00:43:34.758Z,929.94
2017-02-14T00:44:02.961Z,929.96
2017-02-14T00:44:31.068Z,929.97
2017-02-14T00:44:59.425Z,929.96
2017-02-14T00:45:27.625Z,929.96
2017-02-14T00:45:55.716Z,929.96
2017-02-14T00:46:23.845Z,929.96
2017-02-14T00:46:51.870Z,929.97
2017-02-14T00:47:19.984Z,930
2017-02-14T00:47:47.983Z,929.99
2017-02-14T00:48:16.241Z,930
2017-02-14T00:48:44.388Z,929.99
2017-02-14T00:49:12.363Z,930
2017-02-14T00:49:40.697Z,930.02
2017-02-14T00:50:08.571Z,929.97
2017-02-14T00:50:36.676Z,930.01
2017-02-14T00:51:04.843Z,929.95
2017-02-14T00:51:32.947Z,930
2017-02-14T00:52:00.963Z,930.04
2017-02-14T00:52:28.995Z,930.05
2017-02-14T00:52:57.021Z,930.01
2017-02-14T00:53:25.225Z,929.98
2017-02-14T00:53:53.383Z,930.01
2017-02-14T00:54:21.439Z,929.98
2017-02-14T00:54:49.709Z,930.04
2017-02-14T00:55:17.852Z,929.99
2017-02-14T00:55:45.961Z,929.99
2017-02-14T00:56:14.016Z,930.01
2017-02-14T00:56:42.038Z,930.05
2017-02-14T00:57:10.229Z,930.05
2017-02-14T00:57:38.229Z,930.02
2017-02-14T00:58:06.236Z,930.04
2017-02-14T00:58:34.275Z,930.01
2017-02-14T00:59:02.474Z,930.06
2017-02-14T00:59:30.518Z,930.05
2017-02-14T00:59:59.021Z,930.04
2017-02-14T01:00:27.159Z,930.02
2017-02-14T01:00:55.409Z,930.01
2017-02-14T01:01:23.531Z,930.02
2017-02-14T01:01:51.474Z,929.99
2017-02-14T01:02:19.604Z,930.01
2017-02-14T01:02:48.177Z,929.99
2017-02-14T01:03:16.173Z,929.99
2017-02-14T01:03:44.354Z,929.99
2017-02-14T01:04:12.529Z,929.95
2017-02-14T01:04:40.686Z,930.01
2017-02-14T01:05:08.995Z,929.97
2017-02-14T01:05:36.946Z,929.93
2017-02-14T01:06:05.143Z,929.97
2017-02-14T01:06:33.303Z,929.96
2017-02-14T01:07:01.430Z,929.97
2017-02-14T01:07:29.450Z,929.95
2017-02-14T01:07:57.680Z,929.97
2017-02-14T01:08:25.735Z,929.95
2017-02-14T01:08:53.725Z,929.96
2017-02-14T01:09:21.853Z,929.99
2017-02-14T01:09:49.970Z,930.01
2017-02-14T01:10:18.396Z,929.98
2017-02-14T01:10:46.501Z,930.01
2017-02-14T01:11:14.590Z,929.99
2017-02-14T01:11:42.739Z,930.01
2017-02-14T01:12:10.806Z,930.02
2017-02-14T01:12:38.855Z,930.02
2017-02-14T01:13:06.952Z,930.01
2017-02-14T01:13:34.955Z,929.98
2017-02-14T01:14:03.082Z,930.01
2017-02-14T01:14:31.314Z,930
2017-02-14T01:14:59.721Z,930.01
2017-02-14T01:15:27.903Z,930
2017-02-14T01:15:56.119Z,929.98
2017-02-14T01:16:24.216Z,929.98
2017-02-14T01:16:52.375Z,930
2017-02-14T01:17:20.508Z,930.03
2017-02-14T01:17:48.672Z,929.97
2017-02-14T01:18:16.769Z,930.02
2017-02-14T01:18:44.945Z,929.99
2017-02-14T01:19:13.115Z,930.02
2017-02-14T01:19:41.177Z,930.02
2017-02-14T01:20:09.456Z,930.02
2017-02-14T01:20:37.699Z,930.07
2017-02-14T01:21:05.719Z,930.03
2017-02-14T01:21:33.875Z,930.03
2017-02-14T01:22:02.067Z,930.07
2017-02-14T01:22:30.026Z,930.07
2017-02-14T01:22:58.200Z,930.03
2017-02-14T01:23:26.219Z,930.02
2017-02-14T01:23:54.337Z,930.03
2017-02-14T01:24:22.491Z,930
2017-02-14T01:24:50.591Z,930.04
2017-02-14T01:25:18.720Z,930.02
2017-02-14T01:25:46.918Z,930.02
2017-02-14T01:26:15.053Z,929.99
2017-02-14T01:26:43.195Z,930.02
2017-02-14T01:27:11.369Z,930.02
2017-02-14T01:27:39.448Z,930.03
2017-02-14T01:28:07.561Z,930.04
2017-02-14T01:28:35.449Z,930.05
2017-02-14T01:29:03.609Z,930.07
2017-02-14T01:29:31.565Z,930.05
2017-02-14T01:29:59.685Z,930.07
2017-02-14T01:30:27.605Z,930.05
2017-02-14T01:30:55.632Z,930.06
2017-02-14T01:31:23.646Z,930.06
2017-02-14T01:31:51.731Z,930.09
2017-02-14T01:32:19.833Z,930.03
2017-02-14T01:32:48.150Z,930.07
2017-02-14T01:33:16.355Z,930.06
2017-02-14T01:33:44.550Z,930.06
2017-02-14T01:34:12.750Z,930.08
2017-02-14T01:34:40.861Z,930.08
2017-02-14T01:35:08.878Z,930.04
2017-02-14T01:35:37.140Z,930.04
2017-02-14T01:36:05.304Z,930.04
2017-02-14T01:36:33.302Z,930.06
2017-02-14T01:37:01.469Z,930.05
2017-02-14T01:37:29.662Z,930.06
2017-02-14T01:37:57.816Z,930.05
2017-02-14T01:38:26.008Z,930.03
2017-02-14T01:38:54.089Z,930.05
2017-02-14T01:39:22.091Z,930.05
2017-02-14T01:39:50.151Z,930.01
2017-02-14T01:40:18.283Z,930.04
2017-02-14T01:40:46.394Z,930.02
2017-02-14T01:41:14.561Z,930.02
2017-02-14T01:41:42.714Z,930.03
2017-02-14T01:42:10.780Z,930.05
2017-02-14T01:42:38.979Z,930.08
2017-02-14T01:43:06.896Z,930.04
2017-02-14T01:43:35.073Z,930.08
2017-02-14T01:44:03.058Z,930.06
2017-02-14T01:44:31.107Z,930.04
2017-02-14T01:44:59.129Z,930.01
2017-02-14T01:45:27.411Z,930.06
2017-02-14T01:45:55.565Z,930.05
2017-02-14T01:46:23.652Z,930.03
2017-02-14T01:46:51.726Z,930.02
2017-02-14T01:47:19.903Z,930.06
2017-02-14T01:47:48.039Z,930.06
2017-02-14T01:48:16.237Z,930.03
2017-02-14T01:48:44.286Z,930.05
2017-02-14T01:49:12.360Z,930.03
2017-02-14T01:49:40.465Z,930.04
2017-02-14T01:50:08.491Z,930.03
2017-02-14T01:50:36.769Z,930.03
2017-02-14T01:51:04.988Z,930.04
2017-02-14T01:51:32.993Z,930.06
2017-02-14T01:52:01.117Z,930.01
2017-02-14T01:52:29.260Z,930.01
2017-02-14T01:52:57.453Z,930.03
2017-02-14T01:53:25.521Z,930.04
2017-02-14T01:53:53.744Z,930.02
2017-02-14T01:54:21.674Z,930.01
2017-02-14T01:54:49.759Z,930.01
2017-02-14T01:55:17.702Z,929.99
2017-02-14T01:55:45.911Z,930
2017-02-14T01:56:14.104Z,930
2017-02-14T01:56:42.168Z,930.02
2017-02-14T01:57:10.264Z,930
2017-02-14T01:57:38.372Z,930.02
2017-02-14T01:58:06.419Z,929.99
2017-02-14T01:58:34.674Z,929.99
2017-02-14T01:59:02.692Z,929.99
2017-02-14T01:59:30.722Z,930.01
2017-02-14T01:59:58.687Z,930
2017-02-14T02:00:26.628Z,929.98
2017-02-14T02:00:54.845Z,929.97
2017-02-14T02:01:22.976Z,929.97
2017-02-14T02:01:51.109Z,930
2017-02-14T02:02:19.231Z,930.02
2017-02-14T02:02:47.286Z,929.97
2017-02-14T02:03:15.389Z,930.01
2017-02-14T02:03:43.357Z,930.01
2017-02-14T02:04:11.521Z,929.99
2017-02-14T02:04:39.464Z,930
2017-02-14T02:05:07.579Z,929.98
2017-02-14T02:05:36.125Z,929.99
2017-02-14T02:06:04.198Z,929.97
2017-02-14T02:06:32.388Z,929.98
2017-02-14T02:07:00.470Z,929.95
2017-02-14T02:07:28.639Z,929.98
2017-02-14T02:07:56.668Z,929.95
2017-02-14T02:08:24.841Z,929.95
2017-02-14T02:08:53.218Z,929.94
2017-02-14T02:09:21.455Z,929.99
2017-02-14T02:09:49.591Z,929.95
2017-02-14T02:10:17.863Z,929.95
2017-02-14T02:10:45.949Z,929.97
2017-02-14T02:11:14.133Z,929.98
2017-02-14T02:11:42.042Z,929.94
2017-02-14T02:12:10.051Z,929.97
2017-02-14T02:12:38.239Z,929.93
2017-02-14T02:13:06.326Z,929.96
2017-02-14T02:13:34.487Z,929.97
2017-02-14T02:14:02.510Z,929.96
2017-02-14T02:14:30.568Z,929.96
2017-02-14T02:14:58.713Z,929.99
2017-02-14T02:15:26.840Z,929.97
2017-02-14T02:15:55.291Z,929.96
2017-02-14T02:16:23.405Z,929.95
2017-02-14T02:16:51.382Z,929.95
2017-02-14T02:17:19.415Z,929.94
2017-02-14T02:17:47.523Z,929.9
2017-02-14T02:18:15.563Z,929.91
2017-02-14T02:18:43.725Z,929.95
2017-02-14T02:19:11.770Z,929.9
2017-02-14T02:19:39.731Z,929.94
2017-02-14T02:20:07.740Z,929.94
2017-02-14T02:20:35.809Z,929.94
2017-02-14T02:21:04.138Z,929.92
2017-02-14T02:21:32.247Z,929.96
2017-02-14T02:22:00.373Z,929.91
2017-02-14T02:22:28.466Z,929.9
2017-02-14T02:22:56.521Z,929.92
2017-02-14T02:23:24.478Z,929.94
2017-02-14T02:23:52.627Z,929.96
2017-02-14T02:24:20.781Z,929.97
2017-02-14T02:24:48.973Z,929.96
2017-02-14T02:25:17.021Z,929.97
2017-02-14T02:25:45.059Z,929.92
2017-02-14T02:26:13.005Z,929.99
2017-02-14T02:26:41.090Z,929.99
2017-02-14T02:27:09.030Z,929.97
2017-02-14T02:27:37.066Z,929.93
2017-02-14T02:28:05.204Z,929.98
2017-02-14T02:28:33.330Z,929.98
2017-02-14T02:29:01.469Z,929.97
2017-02-14T02:29:29.648Z,930
2017-02-14T02:29:57.858Z,929.98
2017-02-14T02:30:25.901Z,930
2017-02-14T02:30:54.351Z,930
2017-02-14T02:31:22.406Z,930.01
2017-02-14T02:31:50.519Z,929.98
2017-02-14T02:32:18.691Z,929.98
2017-02-14T02:32:46.908Z,930
2017-02-14T02:33:15.133Z,930.03
2017-02-14T02:33:43.307Z,930
2017-02-14T02:34:11.419Z,930.01
2017-02-14T02:34:39.414Z,930.03
2017-02-14T02:35:07.545Z,930.06
2017-02-14T02:35:35.667Z,930.04
2017-02-14T02:36:04.093Z,930.04
2017-02-14T02:36:32.305Z,930.07
2017-02-14T02:37:00.419Z,930.07
2017-02-14T02:37:28.232Z,930.03
2017-02-14T02:37:56.281Z,930.05
2017-02-14T02:38:24.340Z,930.04
2017-02-14T02:38:52.419Z,930.02
2017-02-14T02:39:20.542Z,930.01
2017-02-14T02:39:48.536Z,929.99
2017-02-14T02:40:16.608Z,930.01
2017-02-14T02:40:44.689Z,930.02
2017-02-14T02:41:13.047Z,930.01
2017-02-14T02:41:41.082Z,929.99
2017-02-14T02:42:09.179Z,929.99
2017-02-14T02:42:37.375Z,929.99
2017-02-14T02:43:05.369Z,929.96
2017-02-14T02:43:33.472Z,929.96
2017-02-14T02:44:01.572Z,929.98
2017-02-14T02:44:29.672Z,929.97
2017-02-14T02:44:57.900Z,929.98
2017-02-14T02:45:26.041Z,929.98
2017-02-14T02:45:54.067Z,929.97
2017-02-14T02:46:22.392Z,929.94
2017-02-14T02:46:50.537Z,929.96
2017-02-14T02:47:18.631Z,929.96
2017-02-14T02:47:46.689Z,929.97
2017-02-14T02:48:14.705Z,929.96
2017-02-14T02:48:42.783Z,929.94
2017-02-14T02:49:10.990Z,929.97
2017-02-14T02:49:39.064Z,929.98
2017-02-14T02:50:07.110Z,929.97
2017-02-14T02:50:35.305Z,929.96
2017-02-14T02:51:03.692Z,929.98
2017-02-14T02:51:31.822Z,930
2017-02-14T02:52:00.020Z,930
2017-02-14T02:52:28.150Z,929.99
2017-02-14T02:52:56.296Z,929.96
2017-02-14T02:53:24.326Z,929.95
2017-02-14T02:53:52.502Z,929.95
2017-02-14T02:54:20.558Z,929.95
2017-02-14T02:54:48.572Z,929.93
2017-02-14T02:55:16.702Z,929.93
2017-02-14T02:55:44.690Z,929.96
2017-02-14T02:56:13.008Z,929.94
2017-02-14T02:56:41.043Z,929.93
2017-02-14T02:57:09.062Z,929.93
2017-02-14T02:57:37.150Z,929.91
2017-02-14T02:58:05.290Z,929.96
2017-02-14T02:58:33.503Z,929.94
2017-02-14T02:59:01.592Z,929.9
2017-02-14T02:59:29.666Z,929.93
2017-02-14T02:59:57.867Z,929.92
2017-02-14T03:00:25.812Z,929.91
2017-02-14T03:00:53.949Z,929.91
2017-02-14T03:01:22.380Z,929.92
2017-02-14T03:01:50.555Z,929.9
2017-02-14T03:02:18.803Z,929.9
2017-02-14T03:02:46.852Z,929.89
2017-02-14T03:03:14.927Z,929.89
2017-02-14T03:03:43.110Z,929.91
2017-02-14T03:04:11.281Z,929.91
2017-02-14T03:04:39.486Z,929.92
2017-02-14T03:05:07.446Z,929.9
2017-02-14T03:05:35.400Z,929.92
2017-02-14T03:06:03.626Z,929.92
2017-02-14T03:06:31.958Z,929.91
2017-02-14T03:07:00.085Z,929.9
2017-02-14T03:07:28.012Z,929.91
2017-02-14T03:07:56.086Z,929.88
2017-02-14T03:08:24.174Z,929.89
2017-02-14T03:08:52.213Z,929.88
2017-02-14T03:09:20.228Z,929.88
2017-02-14T03:09:48.374Z,929.9
2017-02-14T03:10:16.432Z,929.86
2017-02-14T03:10:44.472Z,929.87
2017-02-14T03:11:12.496Z,929.81
2017-02-14T03:11:40.681Z,929.83
2017-02-14T03:12:08.704Z,929.86
2017-02-14T03:12:36.882Z,929.86
2017-02-14T03:13:04.985Z,929.86
2017-02-14T03:13:32.950Z,929.84
2017-02-14T03:14:01.153Z,929.88
2017-02-14T03:14:29.387Z,929.88
2017-02-14T03:14:57.565Z,929.84
2017-02-14T03:15:25.507Z,929.85
2017-02-14T03:15:53.486Z,929.85
2017-02-14T03:16:21.686Z,929.86
2017-02-14T03:16:49.782Z,929.82
2017-02-14T03:17:17.824Z,929.84
2017-02-14T03:17:46.027Z,929.85
2017-02-14T03:18:14.166Z,929.86
2017-02-14T03:18:42.317Z,929.88
2017-02-14T03:19:10.390Z,929.86
2017-02-14T03:19:38.673Z,929.83
2017-02-14T03:21:15.439Z,929.84
2017-02-14T03:23:17.479Z,929.8
2017-02-14T03:23:45.607Z,929.85
2017-02-14T03:24:13.955Z,929.82
2017-02-14T03:24:42.165Z,929.85
2017-02-14T03:25:10.300Z,929.84
2017-02-14T03:25:38.506Z,929.8
2017-02-14T03:26:06.810Z,929.82
2017-02-14T03:26:35.149Z,929.84
2017-02-14T03:27:03.300Z,929.86
2017-02-14T03:27:31.567Z,929.86
2017-02-14T03:27:59.817Z,929.86
2017-02-14T03:28:29.130Z,929.82
2017-02-14T03:28:57.347Z,929.86
2017-02-14T03:29:25.490Z,929.84
2017-02-14T03:29:53.537Z,929.89
2017-02-14T03:30:21.844Z,929.87
2017-02-14T03:30:53.089Z,929.86
2017-02-14T03:31:21.274Z,929.88
2017-02-14T03:31:49.538Z,929.86
2017-02-14T03:32:17.760Z,929.9
2017-02-14T03:32:46.187Z,929.87
2017-02-14T03:33:14.462Z,929.88
2017-02-14T03:33:42.761Z,929.87
2017-02-14T03:34:10.984Z,929.87
2017-02-14T03:34:39.152Z,929.87
2017-02-14T03:35:07.334Z,929.88
2017-02-14T03:35:35.649Z,929.9
2017-02-14T03:36:03.846Z,929.87
2017-02-14T03:36:32.136Z,929.85
2017-02-14T03:37:00.368Z,929.85
2017-02-14T03:37:28.595Z,929.85
2017-02-14T03:37:57.072Z,929.89
2017-02-14T03:38:25.499Z,929.88
2017-02-14T03:38:53.542Z,929.85
2017-02-14T03:39:21.832Z,929.83
2017-02-14T03:39:49.917Z,929.86
2017-02-14T03:40:18.227Z,929.86
2017-02-14T03:40:46.711Z,929.89
2017-02-14T03:41:14.916Z,929.88
2017-02-14T03:41:43.296Z,929.85
2017-02-14T03:42:11.449Z,929.87
2017-02-14T03:42:39.520Z,929.9
2017-02-14T03:43:07.673Z,929.88
2017-02-14T03:43:35.904Z,929.87
2017-02-14T03:44:03.832Z,929.88
2017-02-14T03:44:31.788Z,929.86
2017-02-14T03:44:59.833Z,929.87
2017-02-14T03:45:28.150Z,929.86
2017-02-14T03:45:56.657Z,929.83
2017-02-14T03:46:24.836Z,929.85
2017-02-14T03:46:53.054Z,929.86
2017-02-14T03:47:21.265Z,929.85
2017-02-14T03:47:49.473Z,929.83
2017-02-14T03:48:17.599Z,929.84
2017-02-14T03:48:45.786Z,929.87
2017-02-14T03:49:13.923Z,929.87
2017-02-14T03:49:42.304Z,929.83
2017-02-14T03:50:10.672Z,929.84
2017-02-14T03:50:38.791Z,929.85
2017-02-14T03:51:06.979Z,929.88
2017-02-14T03:51:35.273Z,929.82
2017-02-14T03:52:03.455Z,929.84
2017-02-14T03:52:31.584Z,929.83
2017-02-14T03:52:59.767Z,929.83
2017-02-14T03:53:27.990Z,929.83
2017-02-14T03:53:56.111Z,929.82
2017-02-14T03:54:24.190Z,929.83
2017-02-14T03:54:52.309Z,929.81
2017-02-14T03:55:20.584Z,929.85
2017-02-14T03:55:48.848Z,929.84
2017-02-14T03:56:16.949Z,929.83
2017-02-14T03:56:45.339Z,929.83
2017-02-14T03:57:13.546Z,929.83
2017-02-14T03:57:41.806Z,929.81
2017-02-14T03:58:09.951Z,929.84
2017-02-14T03:58:38.031Z,929.83
2017-02-14T03:59:06.262Z,929.81
2017-02-14T03:59:34.371Z,929.84
2017-02-14T04:00:02.651Z,929.8
2017-02-14T04:00:30.784Z,929.82
2017-02-14T04:00:58.792Z,929.83
2017-02-14T04:01:27.131Z,929.81
2017-02-14T04:01:55.419Z,929.81
2017-02-14T04:02:23.579Z,929.82
2017-02-14T04:02:51.732Z,929.8
2017-02-14T04:03:19.909Z,929.8
2017-02-14T04:03:48.099Z,929.81
2017-02-14T04:04:16.333Z,929.78
2017-02-14T04:04:44.496Z,929.79
2017-02-14T04:05:12.729Z,929.81
2017-02-14T04:05:40.940Z,929.72
2017-02-14T04:06:08.993Z,929.69
2017-02-14T04:06:36.978Z,929.72
2017-02-14T04:07:05.176Z,929.74
2017-02-14T04:07:33.342Z,929.72
2017-02-14T04:08:01.527Z,929.72
2017-02-14T04:08:29.655Z,929.73
2017-02-14T04:08:57.905Z,929.71
2017-02-14T04:09:26.222Z,929.72
2017-02-14T04:09:54.433Z,929.7
2017-02-14T04:10:22.745Z,929.73
2017-02-14T04:10:50.858Z,929.7
2017-02-14T04:11:19.124Z,929.71
2017-02-14T04:11:47.269Z,929.71
2017-02-14T04:12:15.463Z,929.72
2017-02-14T04:12:43.676Z,929.7
2017-02-14T04:13:11.761Z,929.75
2017-02-14T04:13:39.932Z,929.75
2017-02-14T04:14:08.241Z,929.75
2017-02-14T04:14:36.352Z,929.71
2017-02-14T04:15:04.432Z,929.76
2017-02-14T04:15:32.711Z,929.74
2017-02-14T04:16:01.000Z,929.73
2017-02-14T04:16:29.195Z,929.73
2017-02-14T04:16:57.645Z,929.75
2017-02-14T04:17:25.977Z,929.73
2017-02-14T04:17:54.141Z,929.74
2017-02-14T04:18:22.337Z,929.74
2017-02-14T04:18:50.499Z,929.72
2017-02-14T04:19:18.619Z,929.75
2017-02-14T04:19:46.884Z,929.75
2017-02-14T04:20:15.124Z,929.76
2017-02-14T04:20:43.308Z,929.8
2017-02-14T04:21:11.433Z,929.76
2017-02-14T04:21:39.502Z,929.78
2017-02-14T04:22:07.624Z,929.77
2017-02-14T04:22:35.938Z,929.8
2017-02-14T04:23:04.175Z,929.79
2017-02-14T04:23:32.371Z,929.74
2017-02-14T04:24:00.648Z,929.76
2017-02-14T04:24:28.833Z,929.8
2017-02-14T04:24:56.935Z,929.76
2017-02-14T04:25:25.195Z,929.77
2017-02-14T04:25:53.267Z,929.74
2017-02-14T04:26:21.459Z,929.72
2017-02-14T04:26:49.698Z,929.73
2017-02-14T04:27:18.183Z,929.73
2017-02-14T04:27:46.475Z,929.72
2017-02-14T04:28:14.583Z,929.72
2017-02-14T04:28:42.724Z,929.7
2017-02-14T04:29:11.036Z,929.7
2017-02-14T04:29:39.334Z,929.71
2017-02-14T04:30:07.541Z,929.7
2017-02-14T04:30:35.900Z,929.71
2017-02-14T04:31:04.181Z,929.73
2017-02-14T04:31:32.370Z,929.68
2017-02-14T04:32:00.760Z,929.71
2017-02-14T04:32:28.963Z,929.69
2017-02-14T04:32:57.081Z,929.68
2017-02-14T04:33:25.289Z,929.68
2017-02-14T04:33:53.453Z,929.7
2017-02-14T04:34:21.682Z,929.7
2017-02-14T04:34:49.816Z,929.67
2017-02-14T04:35:18.098Z,929.72
2017-02-14T04:35:46.432Z,929.64
2017-02-14T04:36:14.721Z,929.67
2017-02-14T04:36:42.964Z,929.69
2017-02-14T04:37:11.131Z,929.7
2017-02-14T04:37:39.170Z,929.7
2017-02-14T04:38:07.283Z,929.7
2017-02-14T04:38:35.442Z,929.72
2017-02-14T04:39:03.643Z,929.71
2017-02-14T04:39:31.827Z,929.69
2017-02-14T04:40:00.016Z,929.7
2017-02-14T04:40:28.237Z,929.71
2017-02-14T04:40:56.458Z,929.68
2017-02-14T04:41:24.671Z,929.69
2017-02-14T04:41:52.891Z,929.69
2017-02-14T04:42:21.140Z,929.67
2017-02-14T04:42:49.155Z,929.7
2017-02-14T04:43:17.375Z,929.72
2017-02-14T04:43:45.390Z,929.7
2017-02-14T04:44:13.695Z,929.7
2017-02-14T04:44:41.894Z,929.68
2017-02-14T04:45:10.072Z,929.7
2017-02-14T04:45:38.404Z,929.68
2017-02-14T04:46:06.562Z,929.64
2017-02-14T04:46:34.586Z,929.66
2017-02-14T04:47:02.942Z,929.61
2017-02-14T04:47:31.202Z,929.66
2017-02-14T04:47:59.400Z,929.63
2017-02-14T04:48:27.660Z,929.62
2017-02-14T04:48:55.795Z,929.68
2017-02-14T04:49:24.084Z,929.63
2017-02-14T04:49:52.284Z,929.64
2017-02-14T04:50:20.417Z,929.65
2017-02-14T04:50:48.690Z,929.63
2017-02-14T04:51:16.985Z,929.64
2017-02-14T04:51:45.232Z,929.62
2017-02-14T04:52:13.361Z,929.64
2017-02-14T04:52:41.627Z,929.61
2017-02-14T04:53:09.833Z,929.63
2017-02-14T04:53:37.998Z,929.63
2017-02-14T04:54:06.305Z,929.64
2017-02-14T04:54:34.514Z,929.6
2017-02-14T04:55:02.700Z,929.62
2017-02-14T04:55:31.000Z,929.6
2017-02-14T04:55:59.036Z,929.62
2017-02-14T04:56:27.243Z,929.6
2017-02-14T04:56:55.529Z,929.6
2017-02-14T04:57:24.091Z,929.63
2017-02-14T04:57:52.345Z,929.65
2017-02-14T04:58:20.392Z,929.64
2017-02-14T04:58:48.468Z,929.63
2017-02-14T04:59:16.738Z,929.65
2017-02-14T04:59:44.971Z,929.65
2017-02-14T05:00:13.184Z,929.65
2017-02-14T05:00:41.425Z,929.61
2017-02-14T05:01:09.469Z,929.63
2017-02-14T05:01:37.651Z,929.62
2017-02-14T05:02:05.934Z,929.64
2017-02-14T05:02:34.206Z,929.64
2017-02-14T05:03:02.495Z,929.66
2017-02-14T05:03:30.778Z,929.61
2017-02-14T05:03:58.919Z,929.64
2017-02-14T05:04:27.136Z,929.66
2017-02-14T05:04:55.321Z,929.65
2017-02-14T05:05:23.527Z,929.67
2017-02-14T05:05:51.730Z,929.7
2017-02-14T05:06:19.977Z,929.61
2017-02-14T05:06:48.111Z,929.64
2017-02-14T05:07:16.237Z,929.61
2017-02-14T05:07:44.473Z,929.66
2017-02-14T05:08:12.523Z,929.65
2017-02-14T05:08:40.757Z,929.67
2017-02-14T05:09:08.875Z,929.67
2017-02-14T05:09:37.157Z,929.71
2017-02-14T05:10:05.355Z,929.7
2017-02-14T05:10:33.540Z,929.69
2017-02-14T05:11:01.850Z,929.67
2017-02-14T05:11:30.062Z,929.65
2017-02-14T05:11:58.109Z,929.69
2017-02-14T05:12:26.242Z,929.67
2017-02-14T05:12:54.446Z,929.66
2017-02-14T05:13:22.623Z,929.7
2017-02-14T05:13:50.828Z,929.66
2017-02-14T05:14:19.077Z,929.65
2017-02-14T05:14:47.252Z,929.69
2017-02-14T05:15:15.386Z,929.69
2017-02-14T05:15:43.557Z,929.71
2017-02-14T05:16:11.749Z,929.66
2017-02-14T05:16:39.969Z,929.68
2017-02-14T05:17:08.077Z,929.64
2017-02-14T05:17:36.349Z,929.71
2017-02-14T05:18:04.645Z,929.71
2017-02-14T05:18:32.878Z,929.7
2017-02-14T05:19:01.204Z,929.66
2017-02-14T05:19:29.416Z,929.67
2017-02-14T05:19:57.537Z,929.69
2017-02-14T05:20:25.679Z,929.66
2017-02-14T05:20:53.912Z,929.69
2017-02-14T05:21:22.006Z,929.7
2017-02-14T05:21:50.021Z,929.66
2017-02-14T05:22:18.429Z,929.73
2017-02-14T05:22:46.667Z,929.72
2017-02-14T05:23:14.800Z,929.73
2017-02-14T05:23:42.908Z,929.72
2017-02-14T05:24:11.168Z,929.72
2017-02-14T05:24:39.466Z,929.76
2017-02-14T05:25:07.534Z,929.74
2017-02-14T05:25:35.529Z,929.76
2017-02-14T05:26:03.795Z,929.74
2017-02-14T05:26:32.021Z,929.76
2017-02-14T05:27:00.185Z,929.73
2017-02-14T05:27:28.667Z,929.72
2017-02-14T05:27:56.841Z,929.74
2017-02-14T05:28:24.977Z,929.73
2017-02-14T05:28:53.167Z,929.73
2017-02-14T05:29:21.358Z,929.74
2017-02-14T05:29:49.646Z,929.72
2017-02-14T05:30:17.849Z,929.73
2017-02-14T05:30:46.065Z,929.69
2017-02-14T05:31:14.338Z,929.72
2017-02-14T05:31:42.329Z,929.72
2017-02-14T05:32:10.337Z,929.72
2017-02-14T05:32:38.831Z,929.68
2017-02-14T05:33:06.926Z,929.67
2017-02-14T05:33:35.299Z,929.68
2017-02-14T05:34:03.511Z,929.68
2017-02-14T05:34:31.658Z,929.73
2017-02-14T05:34:59.862Z,929.7
2017-02-14T05:35:27.941Z,929.7
2017-02-14T05:35:56.119Z,929.72
2017-02-14T05:36:24.262Z,929.71
2017-02-14T05:36:52.265Z,929.73
2017-02-14T05:37:20.202Z,929.72
2017-02-14T05:37:48.594Z,929.75
2017-02-14T05:38:16.879Z,929.72
2017-02-14T05:38:45.023Z,929.71
2017-02-14T05:39:13.265Z,929.74
2017-02-14T05:39:41.322Z,929.73
2017-02-14T05:40:09.532Z,929.71
2017-02-14T05:40:37.720Z,929.76
2017-02-14T05:41:05.762Z,929.73
2017-02-14T05:41:33.973Z,929.74
2017-02-14T05:42:02.186Z,929.74
2017-02-14T05:42:30.531Z,929.73
2017-02-14T05:42:58.941Z,929.76
2017-02-14T05:43:27.255Z,929.75
2017-02-14T05:43:55.449Z,929.73
2017-02-14T05:44:23.633Z,929.74
2017-02-14T05:44:51.832Z,929.73
2017-02-14T05:45:20.066Z,929.73
2017-02-14T05:45:48.199Z,929.77
2017-02-14T05:46:16.330Z,929.75
2017-02-14T05:46:44.535Z,929.76
2017-02-14T05:47:12.789Z,929.75
2017-02-14T05:47:41.192Z,929.78
2017-02-14T05:48:09.377Z,929.78
2017-02-14T05:48:37.603Z,929.79
2017-02-14T05:49:05.813Z,929.76
2017-02-14T05:49:33.919Z,929.78
2017-02-14T05:50:02.237Z,929.78
2017-02-14T05:50:30.429Z,929.74
2017-02-14T05:50:58.654Z,929.75
2017-02-14T05:51:26.871Z,929.78
2017-02-14T05:51:55.155Z,929.77
2017-02-14T05:52:23.295Z,929.78
2017-02-14T05:52:51.459Z,929.79
2017-02-14T05:53:19.639Z,929.78
2017-02-14T05:53:47.925Z,929.79
2017-02-14T05:54:16.245Z,929.8
2017-02-14T05:54:44.365Z,929.83
2017-02-14T05:55:12.643Z,929.81
2017-02-14T05:55:40.840Z,929.8